Norfolk, Virginia
Traffic Map
Current Weather Conditions
Norfolk, Virginia
Clear
Clear
68°
Feels Like: 68°
Wind Chill: 68° Ceiling: Unl
Heat Index: 68° Visibility: 10mi
Dew Point: 52° Wind: 6mph
Humidity: 56% Direction: 240° (WSW)
Pressure: 29.88in Gusts: 0mph
Raw Report DataKORF 211451Z AUTO 24005KT 10SM CLR 20/11 A2988 RMK AO2 SLP117 T02000111 58012 TSNO
Traffic Incident Summary
Active as of:
Severity:
Category:
InformationThere was an issue retrieving the traffic information for this location. Please try a different location or try again shortly.
Advertisements
Track Severe Weather on mobile